createdAt,value
2015-07-06T00:00:16.933Z,0
2015-07-06T00:00:35.152Z,0
2015-07-06T00:00:53.402Z,0
2015-07-06T00:01:11.638Z,0
2015-07-06T00:01:29.872Z,0
2015-07-06T00:01:48.122Z,0
2015-07-06T00:02:06.357Z,0
2015-07-06T00:02:24.593Z,0
2015-07-06T00:02:42.827Z,0
2015-07-06T00:03:01.077Z,0
2015-07-06T00:03:19.314Z,0
2015-07-06T00:03:37.564Z,0
2015-07-06T00:03:55.798Z,0
2015-07-06T00:04:14.033Z,0
2015-07-06T00:04:32.286Z,0
2015-07-06T00:04:50.520Z,0
2015-07-06T00:05:08.754Z,0
2015-07-06T00:05:26.990Z,0
2015-07-06T00:05:45.224Z,0
2015-07-06T00:06:03.474Z,0
2015-07-06T00:06:21.708Z,0
2015-07-06T00:06:39.961Z,0
2015-07-06T00:06:58.196Z,0
2015-07-06T00:07:16.430Z,0
2015-07-06T00:07:34.682Z,0
2015-07-06T00:07:52.917Z,0
2015-07-06T00:08:11.151Z,0
2015-07-06T00:08:29.385Z,0
2015-07-06T00:08:47.622Z,0
2015-07-06T00:09:05.856Z,0
2015-07-06T00:09:24.090Z,0
2015-07-06T00:09:42.341Z,0
2015-07-06T00:10:00.576Z,0
2015-07-06T00:10:18.810Z,0
2015-07-06T00:10:37.045Z,0
2015-07-06T00:10:55.282Z,0
2015-07-06T00:11:13.516Z,0
2015-07-06T00:11:31.766Z,0
2015-07-06T00:11:50.002Z,0
2015-07-06T00:12:08.236Z,0
2015-07-06T00:12:26.470Z,0
2015-07-06T00:12:44.705Z,0
2015-07-06T00:13:02.957Z,0
2015-07-06T00:13:21.191Z,0
2015-07-06T00:13:39.426Z,0
2015-07-06T00:13:57.678Z,0
2015-07-06T00:14:15.912Z,0
2015-07-06T00:14:34.146Z,0
2015-07-06T00:14:52.381Z,0
2015-07-06T00:15:10.633Z,0
2015-07-06T00:15:28.867Z,0
2015-07-06T00:15:47.101Z,0
2015-07-06T00:16:05.353Z,0
2015-07-06T00:16:23.588Z,0
2015-07-06T00:16:41.838Z,0
2015-07-06T00:17:00.072Z,0
2015-07-06T00:17:18.310Z,0
2015-07-06T00:17:36.560Z,0
2015-07-06T00:17:54.794Z,0
2015-07-06T00:18:13.030Z,0
2015-07-06T00:18:31.265Z,0
2015-07-06T00:18:49.515Z,0
2015-07-06T00:19:07.749Z,0
2015-07-06T00:19:25.985Z,0
2015-07-06T00:19:44.220Z,0
2015-07-06T00:20:02.454Z,0
2015-07-06T00:20:20.706Z,0
2015-07-06T00:20:38.956Z,0
2015-07-06T00:20:57.175Z,0
2015-07-06T00:21:15.409Z,0
2015-07-06T00:21:33.646Z,0
2015-07-06T00:21:51.880Z,0
2015-07-06T00:22:10.130Z,0
2015-07-06T00:22:28.366Z,0
2015-07-06T00:22:46.601Z,0
2015-07-06T00:23:04.851Z,0
2015-07-06T00:23:23.085Z,0
2015-07-06T00:23:41.322Z,0
2015-07-06T00:23:59.556Z,0
2015-07-06T00:24:17.806Z,0
2015-07-06T00:24:36.042Z,0
2015-07-06T00:24:54.277Z,0
2015-07-06T00:25:12.511Z,0
2015-07-06T00:25:30.761Z,0
2015-07-06T00:25:48.997Z,0
2015-07-06T00:26:07.232Z,0
2015-07-06T00:26:25.466Z,0
2015-07-06T00:26:43.703Z,0
2015-07-06T00:27:01.937Z,0
2015-07-06T00:27:20.187Z,0
2015-07-06T00:27:38.421Z,0
2015-07-06T00:27:56.658Z,0
2015-07-06T00:28:14.892Z,0
2015-07-06T00:28:33.126Z,0
2015-07-06T00:28:51.363Z,0
2015-07-06T00:29:09.613Z,0
2015-07-06T00:29:27.847Z,0
2015-07-06T00:29:46.082Z,0
2015-07-06T00:30:04.319Z,0
2015-07-06T00:30:22.553Z,0
2015-07-06T00:30:40.803Z,0
2015-07-06T00:30:59.039Z,0
2015-07-06T00:31:17.289Z,0
2015-07-06T00:31:35.523Z,0
2015-07-06T00:31:53.757Z,0
2015-07-06T00:32:11.995Z,0
2015-07-06T00:32:30.245Z,0
2015-07-06T00:32:48.479Z,0
2015-07-06T00:33:06.730Z,0
2015-07-06T00:33:24.965Z,0
2015-07-06T00:33:43.199Z,0
2015-07-06T00:34:01.433Z,0
2015-07-06T00:34:19.671Z,0
2015-07-06T00:34:37.921Z,0
2015-07-06T00:34:56.155Z,0
2015-07-06T00:35:14.390Z,0
2015-07-06T00:35:32.625Z,0
2015-07-06T00:35:50.859Z,0
2015-07-06T00:36:09.094Z,0
2015-07-06T00:36:27.347Z,0
2015-07-06T00:36:45.581Z,0
2015-07-06T00:37:03.815Z,0
2015-07-06T00:37:22.052Z,0
2015-07-06T00:37:40.286Z,0
2015-07-06T00:37:58.536Z,0
2015-07-06T00:38:16.770Z,0
2015-07-06T00:38:35.007Z,0
2015-07-06T00:38:53.241Z,0
2015-07-06T00:39:11.476Z,0
2015-07-06T00:39:29.727Z,0
2015-07-06T00:39:47.961Z,0
2015-07-06T00:40:06.195Z,0
2015-07-06T00:40:24.430Z,0
2015-07-06T00:40:42.682Z,0
2015-07-06T00:41:00.916Z,0
2015-07-06T00:41:19.150Z,0
2015-07-06T00:41:37.388Z,0
2015-07-06T00:41:55.638Z,0
2015-07-06T00:42:13.872Z,0
2015-07-06T00:42:32.107Z,0
2015-07-06T00:42:50.343Z,0
2015-07-06T00:43:08.577Z,0
2015-07-06T00:43:26.827Z,0
2015-07-06T00:43:45.064Z,0
2015-07-06T00:44:03.314Z,0
2015-07-06T00:44:21.548Z,0
2015-07-06T00:44:39.782Z,0
2015-07-06T00:44:58.019Z,0
2015-07-06T00:45:16.253Z,0
2015-07-06T00:45:34.503Z,0
2015-07-06T00:45:52.740Z,0
2015-07-06T00:46:10.974Z,0
2015-07-06T00:46:29.224Z,0
2015-07-06T00:46:47.458Z,0
2015-07-06T00:47:05.695Z,0
2015-07-06T00:47:23.929Z,0
2015-07-06T00:47:42.163Z,0
2015-07-06T00:48:00.415Z,0
2015-07-06T00:48:18.650Z,0
2015-07-06T00:48:36.884Z,0
2015-07-06T00:48:55.119Z,0
2015-07-06T00:49:13.356Z,0
2015-07-06T00:49:31.590Z,0
2015-07-06T00:49:49.840Z,0
2015-07-06T00:50:08.076Z,0
2015-07-06T00:50:26.310Z,0
2015-07-06T00:50:44.560Z,0
2015-07-06T00:51:02.794Z,0
2015-07-06T00:51:21.032Z,0
2015-07-06T00:51:39.266Z,0
2015-07-06T00:51:57.501Z,0
2015-07-06T00:52:15.736Z,0
2015-07-06T00:52:33.986Z,0
2015-07-06T00:52:52.220Z,0
2015-07-06T00:53:10.455Z,0
2015-07-06T00:53:28.691Z,0
2015-07-06T00:53:46.925Z,0
2015-07-06T00:54:05.160Z,0
2015-07-06T00:54:23.396Z,0
2015-07-06T00:54:41.646Z,0
2015-07-06T00:54:59.881Z,0
2015-07-06T00:55:18.115Z,0
2015-07-06T00:55:36.367Z,0
2015-07-06T00:55:54.601Z,0
2015-07-06T00:56:12.836Z,0
2015-07-06T00:56:31.072Z,0
2015-07-06T00:56:49.322Z,0
2015-07-06T00:57:07.556Z,0
2015-07-06T00:57:25.791Z,0
2015-07-06T00:57:44.027Z,0
2015-07-06T00:58:02.277Z,0
2015-07-06T00:58:20.512Z,0
2015-07-06T00:58:38.748Z,0
2015-07-06T00:58:56.982Z,0
2015-07-06T00:59:15.217Z,0
2015-07-06T00:59:33.467Z,0
2015-07-06T00:59:51.719Z,0
2015-07-06T01:00:09.953Z,0
2015-07-06T01:00:28.187Z,0
2015-07-06T01:00:46.424Z,0
2015-07-06T01:01:04.689Z,0
2015-07-06T01:01:22.908Z,0
2015-07-06T01:01:41.143Z,0
2015-07-06T01:01:59.380Z,0
2015-07-06T01:02:17.614Z,0
2015-07-06T01:02:35.849Z,0
2015-07-06T01:02:54.100Z,0
2015-07-06T01:03:12.334Z,0
2015-07-06T01:03:30.568Z,0
2015-07-06T01:03:48.803Z,0
2015-07-06T01:04:07.039Z,0
2015-07-06T01:04:25.274Z,0
2015-07-06T01:04:43.524Z,0
2015-07-06T01:05:01.761Z,0
2015-07-06T01:05:19.995Z,0
2015-07-06T01:05:38.230Z,0
2015-07-06T01:05:56.464Z,0
2015-07-06T01:06:14.716Z,0
2015-07-06T01:06:32.950Z,0
2015-07-06T01:06:51.185Z,0
2015-07-06T01:07:09.421Z,0
2015-07-06T01:07:27.656Z,0
2015-07-06T01:07:45.890Z,0
2015-07-06T01:08:04.124Z,0
2015-07-06T01:08:22.361Z,0
2015-07-06T01:08:40.611Z,0
2015-07-06T01:08:58.845Z,0
2015-07-06T01:09:17.097Z,0
2015-07-06T01:09:35.331Z,0
2015-07-06T01:09:53.581Z,0
2015-07-06T01:10:11.816Z,0
2015-07-06T01:10:30.052Z,0
2015-07-06T01:10:48.302Z,0
2015-07-06T01:11:06.537Z,0
2015-07-06T01:11:24.773Z,0
2015-07-06T01:11:43.023Z,0
2015-07-06T01:12:01.257Z,0
2015-07-06T01:12:19.492Z,0
2015-07-06T01:12:37.744Z,0
2015-07-06T01:12:55.978Z,0
2015-07-06T01:13:14.212Z,0
2015-07-06T01:13:32.464Z,0
2015-07-06T01:13:50.699Z,0
2015-07-06T01:14:08.933Z,0
2015-07-06T01:14:27.168Z,0
2015-07-06T01:14:45.405Z,0
2015-07-06T01:15:03.639Z,0
2015-07-06T01:15:21.874Z,0
2015-07-06T01:15:40.109Z,0
2015-07-06T01:15:58.359Z,0
2015-07-06T01:16:16.593Z,0
2015-07-06T01:16:34.828Z,0
2015-07-06T01:16:53.080Z,0
2015-07-06T01:17:11.314Z,0
2015-07-06T01:17:29.549Z,0
2015-07-06T01:17:47.785Z,0
2015-07-06T01:18:06.019Z,0
2015-07-06T01:18:24.254Z,0
2015-07-06T01:18:42.504Z,0
2015-07-06T01:19:00.740Z,0
2015-07-06T01:19:18.974Z,0
2015-07-06T01:19:37.224Z,0
2015-07-06T01:19:55.461Z,0
2015-07-06T01:20:13.695Z,0
2015-07-06T01:20:31.930Z,0
2015-07-06T01:20:50.164Z,0
2015-07-06T01:21:08.400Z,0
2015-07-06T01:21:26.650Z,0
2015-07-06T01:21:44.885Z,0
2015-07-06T01:22:03.122Z,0
2015-07-06T01:22:21.388Z,0
2015-07-06T01:22:39.591Z,0
2015-07-06T01:22:57.841Z,0
2015-07-06T01:23:16.076Z,0
2015-07-06T01:23:34.311Z,0
2015-07-06T01:23:52.561Z,0
2015-07-06T01:24:10.797Z,0
2015-07-06T01:24:29.031Z,0
2015-07-06T01:24:47.266Z,0
2015-07-06T01:25:05.500Z,0
2015-07-06T01:25:23.753Z,0
2015-07-06T01:25:41.987Z,0
2015-07-06T01:26:00.237Z,0
2015-07-06T01:26:18.473Z,0
2015-07-06T01:26:36.707Z,0
2015-07-06T01:26:54.942Z,0
2015-07-06T01:27:13.176Z,0
2015-07-06T01:27:31.428Z,0
2015-07-06T01:27:49.662Z,0
2015-07-06T01:28:07.897Z,0
2015-07-06T01:28:26.134Z,0
2015-07-06T01:28:44.368Z,0
2015-07-06T01:29:02.618Z,0
2015-07-06T01:29:20.853Z,0
2015-07-06T01:29:39.088Z,0
2015-07-06T01:29:57.323Z,0
2015-07-06T01:30:15.557Z,0
2015-07-06T01:30:33.794Z,0
2015-07-06T01:30:52.029Z,0
2015-07-06T01:31:10.263Z,0
2015-07-06T01:31:28.497Z,0
2015-07-06T01:31:46.749Z,0
2015-07-06T01:32:04.984Z,0
2015-07-06T01:32:23.218Z,0
2015-07-06T01:32:41.454Z,0
2015-07-06T01:32:59.688Z,0
2015-07-06T01:33:17.938Z,0
2015-07-06T01:33:36.188Z,0
2015-07-06T01:33:54.410Z,0
2015-07-06T01:34:12.644Z,0
2015-07-06T01:34:30.894Z,0
2015-07-06T01:34:49.129Z,0
2015-07-06T01:35:07.364Z,0
2015-07-06T01:35:25.614Z,0
2015-07-06T01:35:43.848Z,0
2015-07-06T01:36:02.086Z,0
2015-07-06T01:36:20.320Z,0
2015-07-06T01:36:38.554Z,0
2015-07-06T01:36:56.806Z,0
2015-07-06T01:37:15.041Z,0
2015-07-06T01:37:33.291Z,0
2015-07-06T01:37:51.525Z,0
2015-07-06T01:38:09.761Z,0
2015-07-06T01:38:28.011Z,0
2015-07-06T01:38:46.230Z,0
2015-07-06T01:39:04.467Z,0
2015-07-06T01:39:22.701Z,0
2015-07-06T01:39:40.935Z,0
2015-07-06T01:39:59.185Z,0
2015-07-06T01:40:17.422Z,0
2015-07-06T01:40:35.656Z,0
2015-07-06T01:40:53.890Z,0
2015-07-06T01:41:12.127Z,0
2015-07-06T01:41:30.361Z,0
2015-07-06T01:41:48.611Z,0
2015-07-06T01:42:06.846Z,0
2015-07-06T01:42:25.083Z,0
2015-07-06T01:42:43.317Z,0
2015-07-06T01:43:01.552Z,0
2015-07-06T01:43:19.803Z,0
2015-07-06T01:43:38.037Z,0
2015-07-06T01:43:56.271Z,0
2015-07-06T01:44:14.506Z,0
2015-07-06T01:44:32.742Z,0
2015-07-06T01:44:50.977Z,0
2015-07-06T01:45:09.211Z,0
2015-07-06T01:45:27.447Z,0
2015-07-06T01:45:45.697Z,0
2015-07-06T01:46:03.932Z,0
2015-07-06T01:46:22.166Z,0
2015-07-06T01:46:40.402Z,0
2015-07-06T01:46:58.637Z,0
2015-07-06T01:47:16.887Z,0
2015-07-06T01:47:35.124Z,0
2015-07-06T01:47:53.359Z,0
2015-07-06T01:48:11.593Z,0
2015-07-06T01:48:29.827Z,0
2015-07-06T01:48:48.064Z,0
2015-07-06T01:49:06.314Z,0
2015-07-06T01:49:24.548Z,0
2015-07-06T01:49:42.783Z,0
2015-07-06T01:50:01.018Z,0
2015-07-06T01:50:19.252Z,0
2015-07-06T01:50:37.502Z,0
2015-07-06T01:50:55.740Z,0
2015-07-06T01:51:13.974Z,0
2015-07-06T01:51:32.208Z,0
2015-07-06T01:51:50.445Z,0
2015-07-06T01:52:08.679Z,0
2015-07-06T01:52:26.929Z,0
2015-07-06T01:52:45.163Z,0
2015-07-06T01:53:03.400Z,0
2015-07-06T01:53:21.634Z,0
2015-07-06T01:53:39.869Z,0
2015-07-06T01:53:58.105Z,0
2015-07-06T01:54:16.339Z,0
2015-07-06T01:54:34.574Z,0
2015-07-06T01:54:52.808Z,0
2015-07-06T01:55:11.044Z,0
2015-07-06T01:55:29.279Z,0
2015-07-06T01:55:47.529Z,0
2015-07-06T01:56:05.765Z,0
2015-07-06T01:56:24.000Z,0
2015-07-06T01:56:42.234Z,0
2015-07-06T01:57:00.468Z,0
2015-07-06T01:57:18.705Z,0
2015-07-06T01:57:36.939Z,0
2015-07-06T01:57:55.173Z,0
2015-07-06T01:58:13.409Z,0
2015-07-06T01:58:31.659Z,0
2015-07-06T01:58:49.909Z,0
2015-07-06T01:59:08.143Z,0
2015-07-06T01:59:26.381Z,0
2015-07-06T01:59:44.615Z,0
2015-07-06T02:00:02.849Z,0
2015-07-06T02:00:21.101Z,0
2015-07-06T02:00:39.336Z,0
2015-07-06T02:00:57.570Z,0
2015-07-06T02:01:15.820Z,0
2015-07-06T02:01:34.056Z,0
2015-07-06T02:01:52.291Z,0
2015-07-06T02:02:10.541Z,0
2015-07-06T02:02:28.777Z,0
2015-07-06T02:02:47.027Z,0
2015-07-06T02:03:05.262Z,0
2015-07-06T02:03:23.496Z,0
2015-07-06T02:03:41.732Z,0
2015-07-06T02:03:59.982Z,0
2015-07-06T02:04:18.217Z,0
2015-07-06T02:04:36.453Z,0
2015-07-06T02:04:54.719Z,0
2015-07-06T02:05:12.922Z,0
2015-07-06T02:05:31.156Z,0
2015-07-06T02:05:49.393Z,0
2015-07-06T02:06:07.643Z,0
2015-07-06T02:06:25.877Z,0
2015-07-06T02:06:44.114Z,0
2015-07-06T02:07:02.349Z,0
2015-07-06T02:07:20.599Z,0
2015-07-06T02:07:38.833Z,0
2015-07-06T02:07:57.068Z,0
2015-07-06T02:08:15.303Z,0
2015-07-06T02:08:33.537Z,0
2015-07-06T02:08:51.774Z,0
2015-07-06T02:09:10.008Z,0
2015-07-06T02:09:28.258Z,0
2015-07-06T02:09:46.492Z,0
2015-07-06T02:10:04.730Z,0
2015-07-06T02:10:22.964Z,0
2015-07-06T02:10:41.198Z,0
2015-07-06T02:10:59.434Z,0
2015-07-06T02:11:17.684Z,0
2015-07-06T02:11:35.918Z,0
2015-07-06T02:11:54.184Z,0
2015-07-06T02:12:12.420Z,0
2015-07-06T02:12:30.655Z,0
2015-07-06T02:12:48.889Z,0
2015-07-06T02:13:07.126Z,0
2015-07-06T02:13:25.376Z,0
2015-07-06T02:13:43.611Z,0
2015-07-06T02:14:01.845Z,0
2015-07-06T02:14:20.096Z,0
2015-07-06T02:14:38.330Z,0
2015-07-06T02:14:56.565Z,0
2015-07-06T02:15:14.802Z,0
2015-07-06T02:15:33.037Z,0
2015-07-06T02:15:51.287Z,0
2015-07-06T02:16:09.521Z,0
2015-07-06T02:16:27.757Z,0
2015-07-06T02:16:45.992Z,0
2015-07-06T02:17:04.242Z,0
2015-07-06T02:17:22.478Z,0
2015-07-06T02:17:40.712Z,0
2015-07-06T02:17:58.947Z,0
2015-07-06T02:18:17.181Z,0
2015-07-06T02:18:35.418Z,0
2015-07-06T02:18:53.652Z,0
2015-07-06T02:19:11.902Z,0
2015-07-06T02:19:30.138Z,0
2015-07-06T02:19:48.373Z,0
2015-07-06T02:20:06.623Z,0
2015-07-06T02:20:24.857Z,0
2015-07-06T02:20:43.093Z,0
2015-07-06T02:21:01.343Z,0
2015-07-06T02:21:19.578Z,0
2015-07-06T02:21:37.814Z,0
2015-07-06T02:21:56.049Z,0
2015-07-06T02:22:14.283Z,0
2015-07-06T02:22:32.517Z,0
2015-07-06T02:22:50.754Z,0
2015-07-06T02:23:08.988Z,0
2015-07-06T02:23:27.238Z,0
2015-07-06T02:23:45.473Z,0
2015-07-06T02:24:03.708Z,0
2015-07-06T02:24:21.942Z,0
2015-07-06T02:24:40.177Z,0
2015-07-06T02:24:58.414Z,0
2015-07-06T02:25:16.648Z,0
2015-07-06T02:25:34.898Z,0
2015-07-06T02:25:53.135Z,0
2015-07-06T02:26:11.369Z,0
2015-07-06T02:26:29.603Z,0
2015-07-06T02:26:47.853Z,0
2015-07-06T02:27:06.090Z,0
2015-07-06T02:27:24.324Z,0
2015-07-06T02:27:42.574Z,0
2015-07-06T02:28:00.811Z,0
2015-07-06T02:28:19.045Z,0
2015-07-06T02:28:37.295Z,0
2015-07-06T02:28:55.529Z,1
2015-07-06T02:29:13.766Z,1
2015-07-06T02:29:32.000Z,1
2015-07-06T02:29:50.234Z,1
2015-07-06T02:30:08.471Z,1
2015-07-06T02:30:26.736Z,1
2015-07-06T02:30:44.971Z,2
2015-07-06T02:31:03.205Z,2
2015-07-06T02:31:21.457Z,2
2015-07-06T02:31:39.692Z,2
2015-07-06T02:31:57.926Z,2
2015-07-06T02:32:16.163Z,2
2015-07-06T02:32:34.398Z,3
2015-07-06T02:32:52.648Z,3
2015-07-06T02:33:10.882Z,3
2015-07-06T02:33:29.117Z,3
2015-07-06T02:33:47.352Z,3
2015-07-06T02:34:05.586Z,3
2015-07-06T02:34:23.823Z,4
2015-07-06T02:34:42.073Z,4
2015-07-06T02:35:00.307Z,4
2015-07-06T02:35:18.557Z,4
2015-07-06T02:35:36.779Z,4
2015-07-06T02:35:55.013Z,4
2015-07-06T02:36:13.247Z,4
2015-07-06T02:36:31.498Z,4
2015-07-06T02:36:49.733Z,4
2015-07-06T02:37:07.967Z,4
2015-07-06T02:37:26.202Z,4
2015-07-06T02:37:44.455Z,4
2015-07-06T02:38:02.689Z,4
2015-07-06T02:38:20.923Z,4
2015-07-06T02:38:39.160Z,4
2015-07-06T02:38:57.410Z,3
2015-07-06T02:39:15.644Z,3
2015-07-06T02:39:33.878Z,4
2015-07-06T02:39:52.115Z,4
2015-07-06T02:40:10.365Z,4
2015-07-06T02:40:28.599Z,4
2015-07-06T02:40:46.835Z,4
2015-07-06T02:41:05.085Z,5
2015-07-06T02:41:23.319Z,5
2015-07-06T02:41:41.553Z,5
2015-07-06T02:41:59.791Z,5
2015-07-06T02:42:18.025Z,6
2015-07-06T02:42:36.259Z,6
2015-07-06T02:42:54.510Z,6
2015-07-06T02:43:12.745Z,7
2015-07-06T02:43:30.979Z,7
2015-07-06T02:43:49.214Z,7
2015-07-06T02:44:07.451Z,7
2015-07-06T02:44:25.685Z,8
2015-07-06T02:44:43.920Z,8
2015-07-06T02:45:02.156Z,8
2015-07-06T02:45:20.390Z,8
2015-07-06T02:45:38.640Z,8
2015-07-06T02:45:56.875Z,9
2015-07-06T02:46:15.110Z,9
2015-07-06T02:46:33.345Z,9
2015-07-06T02:46:51.579Z,9
2015-07-06T02:47:09.816Z,9
2015-07-06T02:47:28.051Z,9
2015-07-06T02:47:46.285Z,9
2015-07-06T02:48:04.535Z,9
2015-07-06T02:48:22.787Z,10
2015-07-06T02:48:41.006Z,10
2015-07-06T02:48:59.256Z,10
2015-07-06T02:49:17.492Z,10
2015-07-06T02:49:35.727Z,11
2015-07-06T02:49:53.977Z,11
2015-07-06T02:50:12.211Z,12
2015-07-06T02:50:30.447Z,12
2015-07-06T02:50:48.682Z,13
2015-07-06T02:51:06.932Z,14
2015-07-06T02:51:25.168Z,14
2015-07-06T02:51:43.402Z,15
2015-07-06T02:52:01.652Z,15
2015-07-06T02:52:19.887Z,16
2015-07-06T02:52:38.123Z,17
2015-07-06T02:52:56.358Z,17
2015-07-06T02:53:14.608Z,18
2015-07-06T02:53:32.860Z,18
2015-07-06T02:53:51.110Z,18
2015-07-06T02:54:09.344Z,18
2015-07-06T02:54:27.578Z,19
2015-07-06T02:54:45.830Z,20
2015-07-06T02:55:04.065Z,20
2015-07-06T02:55:22.299Z,21
2015-07-06T02:55:40.551Z,22
2015-07-06T02:55:58.785Z,22
2015-07-06T02:56:17.035Z,23
2015-07-06T02:56:35.270Z,23
2015-07-06T02:56:53.506Z,23
2015-07-06T02:57:11.741Z,24
2015-07-06T02:57:29.975Z,24
2015-07-06T02:57:48.227Z,24
2015-07-06T02:58:06.461Z,24
2015-07-06T02:58:24.696Z,24
2015-07-06T02:58:42.946Z,24
2015-07-06T02:59:01.182Z,24
2015-07-06T02:59:19.432Z,25
2015-07-06T02:59:37.666Z,26
2015-07-06T02:59:55.903Z,27
2015-07-06T03:00:14.153Z,27
2015-07-06T03:00:32.387Z,28
2015-07-06T03:00:50.622Z,28
2015-07-06T03:01:08.875Z,29
2015-07-06T03:01:27.109Z,30
2015-07-06T03:01:45.343Z,30
2015-07-06T03:02:03.580Z,30
2015-07-06T03:02:21.830Z,31
2015-07-06T03:02:40.064Z,31
2015-07-06T03:02:58.314Z,31
2015-07-06T03:03:16.550Z,31
2015-07-06T03:03:34.785Z,31
2015-07-06T03:03:53.019Z,32
2015-07-06T03:04:11.255Z,32
2015-07-06T03:04:29.489Z,32
2015-07-06T03:04:47.723Z,32
2015-07-06T03:05:05.973Z,33
2015-07-06T03:05:24.211Z,34
2015-07-06T03:05:42.461Z,34
2015-07-06T03:06:00.695Z,35
2015-07-06T03:06:18.930Z,36
2015-07-06T03:06:37.165Z,37
2015-07-06T03:06:55.415Z,39
2015-07-06T03:07:13.649Z,40
2015-07-06T03:07:31.887Z,42
2015-07-06T03:07:50.137Z,44
2015-07-06T03:08:08.371Z,45
2015-07-06T03:08:26.607Z,46
2015-07-06T03:08:44.857Z,47
2015-07-06T03:09:03.092Z,47
2015-07-06T03:09:21.326Z,44
2015-07-06T03:09:39.578Z,40
2015-07-06T03:09:57.812Z,36
2015-07-06T03:10:16.047Z,34
2015-07-06T03:10:34.283Z,32
2015-07-06T03:10:52.518Z,30
2015-07-06T03:11:10.752Z,28
2015-07-06T03:11:29.002Z,28
2015-07-06T03:11:47.238Z,29
2015-07-06T03:12:05.473Z,28
2015-07-06T03:12:23.707Z,28
2015-07-06T03:12:41.959Z,30
2015-07-06T03:13:00.193Z,36
2015-07-06T03:13:18.428Z,38
2015-07-06T03:13:36.662Z,44
2015-07-06T03:13:54.899Z,44
2015-07-06T03:14:13.149Z,41
2015-07-06T03:14:31.383Z,40
2015-07-06T03:14:49.619Z,40
2015-07-06T03:15:07.869Z,41
2015-07-06T03:15:26.104Z,43
2015-07-06T03:15:44.338Z,45
2015-07-06T03:16:02.590Z,45
2015-07-06T03:16:20.824Z,52
2015-07-06T03:16:39.074Z,58
2015-07-06T03:16:57.311Z,61
2015-07-06T03:17:15.545Z,62
2015-07-06T03:17:33.780Z,58
2015-07-06T03:17:52.030Z,58
2015-07-06T03:18:10.266Z,58
2015-07-06T03:18:28.500Z,62
2015-07-06T03:18:46.735Z,61
2015-07-06T03:19:04.987Z,60
2015-07-06T03:19:23.221Z,62
2015-07-06T03:19:41.471Z,58
2015-07-06T03:19:59.705Z,56
2015-07-06T03:20:17.942Z,58
2015-07-06T03:20:36.192Z,57
2015-07-06T03:20:54.426Z,54
2015-07-06T03:21:12.663Z,53
2015-07-06T03:21:30.897Z,60
2015-07-06T03:21:49.147Z,72
2015-07-06T03:22:07.381Z,81
2015-07-06T03:22:25.618Z,87
2015-07-06T03:22:43.852Z,93
2015-07-06T03:23:02.086Z,98
2015-07-06T03:23:20.338Z,102
2015-07-06T03:23:38.573Z,104
2015-07-06T03:23:56.807Z,105
2015-07-06T03:24:15.057Z,109
2015-07-06T03:24:33.294Z,110
2015-07-06T03:24:51.528Z,109
2015-07-06T03:25:09.762Z,105
2015-07-06T03:25:28.015Z,105
2015-07-06T03:25:46.250Z,108
2015-07-06T03:26:04.500Z,104
2015-07-06T03:26:22.734Z,94
2015-07-06T03:26:40.969Z,88
2015-07-06T03:26:59.204Z,73
2015-07-06T03:27:17.454Z,67
2015-07-06T03:27:35.691Z,72
2015-07-06T03:27:53.926Z,73
2015-07-06T03:28:12.160Z,71
2015-07-06T03:28:30.410Z,72
2015-07-06T03:28:48.645Z,72
2015-07-06T03:29:06.880Z,72
2015-07-06T03:29:25.114Z,65
2015-07-06T03:29:43.367Z,59
2015-07-06T03:30:01.601Z,58
2015-07-06T03:30:19.836Z,65
2015-07-06T03:30:38.086Z,69
2015-07-06T03:30:56.322Z,65
2015-07-06T03:31:14.557Z,68
2015-07-06T03:31:32.791Z,78
2015-07-06T03:31:51.027Z,73
2015-07-06T03:32:09.277Z,57
2015-07-06T03:32:27.512Z,51
2015-07-06T03:32:45.746Z,51
2015-07-06T03:33:03.982Z,49
2015-07-06T03:33:22.217Z,47
2015-07-06T03:33:40.451Z,46
2015-07-06T03:33:58.703Z,46
2015-07-06T03:34:16.938Z,44
2015-07-06T03:34:35.172Z,46
2015-07-06T03:34:53.422Z,51
2015-07-06T03:35:11.658Z,52
2015-07-06T03:35:29.893Z,53
2015-07-06T03:35:48.143Z,53
2015-07-06T03:36:06.379Z,59
2015-07-06T03:36:24.613Z,70
2015-07-06T03:36:42.848Z,85
2015-07-06T03:37:01.082Z,92
2015-07-06T03:37:19.319Z,86
2015-07-06T03:37:37.569Z,84
2015-07-06T03:37:55.803Z,71
2015-07-06T03:38:14.039Z,64
2015-07-06T03:38:32.274Z,54
2015-07-06T03:38:50.524Z,45
2015-07-06T03:39:08.758Z,42
2015-07-06T03:39:26.994Z,43
2015-07-06T03:39:45.229Z,43
2015-07-06T03:40:03.479Z,43
2015-07-06T03:40:21.715Z,39
2015-07-06T03:40:39.950Z,35
2015-07-06T03:40:58.184Z,34
2015-07-06T03:41:16.434Z,37
2015-07-06T03:41:34.686Z,33
2015-07-06T03:41:52.905Z,32
2015-07-06T03:42:11.139Z,35
2015-07-06T03:42:29.391Z,44
2015-07-06T03:42:47.625Z,56
2015-07-06T03:43:05.860Z,67
2015-07-06T03:43:24.094Z,77
2015-07-06T03:43:42.346Z,85
2015-07-06T03:44:00.581Z,90
2015-07-06T03:44:18.815Z,97
2015-07-06T03:44:37.051Z,103
2015-07-06T03:44:55.286Z,108
2015-07-06T03:45:13.536Z,108
2015-07-06T03:45:31.770Z,104
2015-07-06T03:45:50.006Z,100
2015-07-06T03:46:08.241Z,91
2015-07-06T03:46:26.491Z,83
2015-07-06T03:46:44.727Z,81
2015-07-06T03:47:02.962Z,87
2015-07-06T03:47:21.196Z,88
2015-07-06T03:47:39.446Z,71
2015-07-06T03:47:57.682Z,67
2015-07-06T03:48:15.932Z,81
2015-07-06T03:48:34.167Z,89
2015-07-06T03:48:52.403Z,84
2015-07-06T03:49:10.637Z,82
2015-07-06T03:49:28.872Z,81
2015-07-06T03:49:47.106Z,82
2015-07-06T03:50:05.343Z,82
2015-07-06T03:50:23.577Z,85
2015-07-06T03:50:41.827Z,88
2015-07-06T03:51:00.064Z,82
2015-07-06T03:51:18.299Z,76
2015-07-06T03:51:36.549Z,67
2015-07-06T03:51:54.783Z,63
2015-07-06T03:52:13.018Z,57
2015-07-06T03:52:31.253Z,52
2015-07-06T03:52:49.487Z,50
2015-07-06T03:53:07.740Z,50
2015-07-06T03:53:25.959Z,50
2015-07-06T03:53:44.209Z,58
2015-07-06T03:54:02.443Z,67
2015-07-06T03:54:20.680Z,65
2015-07-06T03:54:38.914Z,66
2015-07-06T03:54:57.148Z,73
2015-07-06T03:55:15.384Z,78
2015-07-06T03:55:33.618Z,83
2015-07-06T03:55:51.853Z,87
2015-07-06T03:56:10.103Z,89
2015-07-06T03:56:28.339Z,90
2015-07-06T03:56:46.573Z,94
2015-07-06T03:57:04.808Z,94
2015-07-06T03:57:23.045Z,86
2015-07-06T03:57:41.279Z,74
2015-07-06T03:57:59.514Z,70
2015-07-06T03:58:17.764Z,74
2015-07-06T03:58:36.000Z,85
2015-07-06T03:58:54.235Z,90
2015-07-06T03:59:12.469Z,95
2015-07-06T03:59:30.721Z,94
2015-07-06T03:59:48.955Z,98
2015-07-06T04:00:07.190Z,95
2015-07-06T04:00:25.440Z,88
2015-07-06T04:00:43.676Z,85
2015-07-06T04:01:01.926Z,88
2015-07-06T04:01:20.160Z,87
2015-07-06T04:01:38.397Z,84
2015-07-06T04:01:56.647Z,83
2015-07-06T04:02:14.881Z,84
2015-07-06T04:02:33.131Z,88
2015-07-06T04:02:51.352Z,96
2015-07-06T04:03:09.586Z,98
2015-07-06T04:03:27.821Z,98
2015-07-06T04:03:46.073Z,96
2015-07-06T04:04:04.307Z,97
2015-07-06T04:04:22.557Z,97
2015-07-06T04:04:40.791Z,91
2015-07-06T04:04:59.028Z,78
2015-07-06T04:05:17.262Z,68
2015-07-06T04:05:35.497Z,62
2015-07-06T04:05:53.749Z,65
2015-07-06T04:06:11.983Z,64
2015-07-06T04:06:30.217Z,68
2015-07-06T04:06:48.467Z,81
2015-07-06T04:07:06.704Z,89
2015-07-06T04:07:24.938Z,88
2015-07-06T04:07:43.172Z,85
2015-07-06T04:08:01.424Z,87
2015-07-06T04:08:19.659Z,92
2015-07-06T04:08:37.893Z,95
2015-07-06T04:08:56.128Z,95
2015-07-06T04:09:14.381Z,97
2015-07-06T04:09:32.615Z,96
2015-07-06T04:09:50.849Z,99
2015-07-06T04:10:09.085Z,99
2015-07-06T04:10:27.335Z,102
2015-07-06T04:10:45.569Z,108
2015-07-06T04:11:03.803Z,114
2015-07-06T04:11:22.056Z,118
2015-07-06T04:11:40.291Z,122
2015-07-06T04:11:58.541Z,127
2015-07-06T04:12:16.776Z,124
2015-07-06T04:12:35.011Z,131
2015-07-06T04:12:53.261Z,127
2015-07-06T04:13:11.495Z,127
2015-07-06T04:13:29.731Z,121
2015-07-06T04:13:47.981Z,118
2015-07-06T04:14:06.216Z,125
2015-07-06T04:14:24.468Z,138
2015-07-06T04:14:42.702Z,137
2015-07-06T04:15:00.952Z,140
2015-07-06T04:15:19.186Z,152
2015-07-06T04:15:37.424Z,157
2015-07-06T04:15:55.674Z,157
2015-07-06T04:16:13.908Z,152
2015-07-06T04:16:32.144Z,157
2015-07-06T04:16:50.378Z,151
2015-07-06T04:17:08.628Z,140
2015-07-06T04:17:26.862Z,148
2015-07-06T04:17:45.115Z,151
2015-07-06T04:18:03.350Z,154
2015-07-06T04:18:21.584Z,155
2015-07-06T04:18:39.819Z,151
2015-07-06T04:18:58.069Z,147
2015-07-06T04:19:16.304Z,146
2015-07-06T04:19:34.538Z,151
2015-07-06T04:19:52.776Z,155
2015-07-06T04:20:11.026Z,146
2015-07-06T04:20:29.260Z,149
2015-07-06T04:20:47.512Z,146
2015-07-06T04:21:05.746Z,144
2015-07-06T04:21:23.981Z,147
2015-07-06T04:21:42.215Z,147
2015-07-06T04:22:00.451Z,148
2015-07-06T04:22:18.701Z,141
2015-07-06T04:22:36.951Z,133
2015-07-06T04:22:55.172Z,136
2015-07-06T04:23:13.422Z,136
2015-07-06T04:23:31.657Z,142
2015-07-06T04:23:49.891Z,150
2015-07-06T04:24:08.143Z,153
2015-07-06T04:24:26.377Z,156
2015-07-06T04:24:44.627Z,156
2015-07-06T04:25:02.863Z,154
2015-07-06T04:25:21.097Z,153